Time;durP1;ratioP1;P1;durP2;ratioP2;P2;SDS_P1;SDS_P2;PMS_P1;PMS_P2;Temp;Humidity;BMP_temperature;BMP_pressure;BME280_temperature;BME280_humidity;BME280_pressure;Samples;Min_cycle;Max_cycle;Signal;HPM_P1;HPM_P2
2022/12/28 00:01:09;;;;;;;3.55;2.97;;;17.20;76.00;;;18.40;42.01;99632.38;5040084;28;20044;-82
2022/12/28 00:03:36;;;;;;;7.10;3.75;;;17.10;76.10;;;18.40;42.13;99626.09;5034387;28;20055;-82
2022/12/28 00:06:03;;;;;;;7.95;3.97;;;17.20;75.90;;;18.37;42.03;99632.19;5049133;28;20037;-82
2022/12/28 00:08:29;;;;;;;7.57;3.80;;;17.20;75.80;;;18.39;42.10;99628.03;5015969;28;20489;-82
2022/12/28 00:11:04;;;;;;;6.95;4.13;;;17.20;75.60;;;18.40;42.03;99629.63;5055994;28;20051;-82
2022/12/28 00:13:30;;;;;;;6.15;3.60;;;17.20;75.60;;;18.38;42.12;99623.63;5036291;28;20028;-82
2022/12/28 00:16:11;;;;;;;6.40;3.55;;;17.10;75.80;;;18.41;41.96;99628.50;5019803;28;20154;-82
2022/12/28 00:18:37;;;;;;;5.05;2.97;;;17.20;75.80;;;18.41;42.00;99623.00;5019726;28;20063;-82
2022/12/28 00:21:04;;;;;;;4.90;3.60;;;17.20;75.60;;;18.41;41.88;99623.00;5034236;28;20049;-82
2022/12/28 00:23:30;;;;;;;6.45;3.35;;;17.20;75.60;;;18.37;42.00;99619.25;5033226;28;20123;-82
2022/12/28 00:26:05;;;;;;;4.22;3.15;;;17.20;75.60;;;18.37;41.90;99629.44;5036810;28;20047;-82
2022/12/28 00:28:32;;;;;;;7.35;3.90;;;17.10;75.50;;;18.32;42.00;99630.34;5035559;28;20056;-82
2022/12/28 00:30:58;;;;;;;6.72;3.67;;;17.20;75.60;;;18.37;42.00;99627.50;5031917;28;20044;-82
2022/12/28 00:33:24;;;;;;;4.75;3.72;;;17.20;75.60;;;18.37;41.89;99627.50;5034523;28;20041;-82
2022/12/28 00:35:54;;;;;;;7.95;3.95;;;17.20;75.60;;;18.37;42.03;99629.44;5050547;28;20461;-82
2022/12/28 00:38:20;;;;;;;6.38;3.38;;;17.30;75.70;;;18.34;41.95;99630.88;5048225;28;20047;-82
2022/12/28 00:40:46;;;;;;;8.40;4.10;;;17.20;75.60;;;18.38;42.04;99634.59;5037323;28;20049;-82
2022/12/28 00:43:13;;;;;;;4.55;3.45;;;17.20;75.60;;;18.37;42.06;99643.19;5031944;28;20055;-82
2022/12/28 00:45:38;;;;;;;5.05;2.92;;;17.20;75.60;;;18.31;42.06;99631.44;5034931;28;20053;-82
2022/12/28 00:48:05;;;;;;;4.68;3.60;;;17.20;75.60;;;18.33;41.96;99636.66;5030713;28;20453;-82
2022/12/28 00:50:31;;;;;;;5.78;3.35;;;17.20;75.60;;;18.32;42.08;99635.84;5037508;28;20048;-82
2022/12/28 00:52:57;;;;;;;5.32;3.03;;;17.10;75.60;;;18.32;42.27;99627.59;5037935;28;20119;-82
2022/12/28 00:55:23;;;;;;;10.07;3.90;;;17.10;75.60;;;18.34;42.38;99630.88;5030923;28;20047;-82
2022/12/28 00:57:49;;;;;;;5.85;4.25;;;17.10;76.20;;;18.30;42.41;99632.59;5032081;28;20048;-82
2022/12/28 01:00:16;;;;;;;5.35;3.35;;;17.10;76.40;;;18.26;42.67;99637.03;5035096;28;20051;-82
2022/12/28 01:02:42;;;;;;;8.50;4.00;;;17.10;76.40;;;18.31;42.37;99639.69;5049322;28;20051;-82
2022/12/28 01:05:08;;;;;;;8.48;3.65;;;17.10;76.30;;;18.27;42.24;99644.19;5030451;28;20037;-82
2022/12/28 01:07:35;;;;;;;5.40;3.13;;;17.10;76.20;;;18.22;42.22;99636.84;5036822;28;20055;-82
2022/12/28 01:10:01;;;;;;;6.20;3.30;;;17.10;76.20;;;18.30;42.70;99642.75;5049739;28;20041;-82
2022/12/28 01:12:28;;;;;;;5.07;3.45;;;17.10;76.20;;;18.26;42.74;99642.53;5017067;28;20047;-82
2022/12/28 01:14:54;;;;;;;8.10;4.15;;;17.00;76.70;;;18.21;42.70;99631.66;5032029;28;20538;-82
2022/12/28 01:17:20;;;;;;;5.95;3.97;;;17.00;76.90;;;18.24;42.46;99639.28;5030646;28;20044;-82
2022/12/28 01:19:46;;;;;;;4.28;3.40;;;17.10;76.70;;;18.23;42.46;99635.72;5033918;28;20040;-82
2022/12/28 01:22:13;;;;;;;5.75;3.30;;;17.00;76.40;;;18.27;42.44;99638.69;5035734;28;20098;-82
2022/12/28 01:24:39;;;;;;;7.30;3.35;;;17.00;76.60;;;18.26;42.39;99634.28;5029605;28;20169;-82
2022/12/28 01:27:05;;;;;;;5.07;3.72;;;17.00;76.50;;;18.27;42.46;99633.19;5020363;28;20037;-82
2022/12/28 01:29:31;;;;;;;7.10;4.00;;;17.10;76.60;;;18.26;42.42;99637.03;5029139;28;20033;-82
2022/12/28 01:31:57;;;;;;;5.82;3.92;;;17.10;76.40;;;18.26;42.30;99634.28;5033268;28;20123;-82
2022/12/28 01:34:23;;;;;;;5.53;3.53;;;17.10;76.40;;;18.20;42.42;99635.53;5029919;28;20048;-82
2022/12/28 01:36:49;;;;;;;6.45;3.58;;;17.10;76.20;;;18.20;42.50;99627.28;5047389;28;20040;-82
2022/12/28 01:39:19;;;;;;;6.15;3.78;;;17.00;76.20;;;18.21;42.50;99628.91;5032491;28;20102;-82
2022/12/28 01:41:45;;;;;;;7.30;4.03;;;17.00;76.50;;;18.24;42.30;99631.03;5006012;28;20045;-82
2022/12/28 01:44:11;;;;;;;4.20;3.35;;;17.00;76.30;;;18.22;42.27;99620.38;5048843;28;20689;-82
2022/12/28 01:46:43;;;;;;;6.13;3.53;;;17.00;76.40;;;18.22;42.45;99614.06;5065017;28;20033;-82
2022/12/28 01:49:43;;;;;;;5.10;3.53;;;17.00;76.40;;;18.17;42.51;99625.16;5050195;28;20094;-82
2022/12/28 01:52:26;;;;;;;5.80;3.28;;;17.00;76.20;;;18.16;42.50;99615.28;5043338;28;20044;-82
2022/12/28 01:55:07;;;;;;;5.13;3.38;;;17.00;77.40;;;18.19;42.28;99621.00;5040404;28;20048;-82
2022/12/28 01:57:47;;;;;;;7.13;3.53;;;17.00;76.40;;;18.16;42.28;99620.75;5031752;28;20103;-82
2022/12/28 02:00:14;;;;;;;5.78;3.65;;;17.00;76.40;;;18.22;42.23;99614.06;5020425;28;20052;-82
2022/12/28 02:02:49;;;;;;;4.88;3.28;;;17.00;76.30;;;18.16;42.42;99605.09;5034116;28;20049;-82
2022/12/28 02:05:15;;;;;;;6.03;3.88;;;17.00;76.10;;;18.19;42.35;99604.50;5047875;28;20138;-82
2022/12/28 02:07:50;;;;;;;8.05;3.67;;;17.00;76.10;;;18.17;42.28;99606.75;5048167;28;20044;-82
2022/12/28 02:10:16;;;;;;;4.65;3.50;;;17.00;76.30;;;18.15;42.59;99608.97;5047230;28;20182;-82
2022/12/28 02:12:42;;;;;;;7.43;3.83;;;16.90;76.40;;;18.16;42.35;99607.03;5028404;28;20033;-82
2022/12/28 02:15:09;;;;;;;5.00;3.47;;;16.90;76.50;;;18.17;42.55;99603.19;5038047;28;20387;-82
2022/12/28 02:17:35;;;;;;;7.32;3.95;;;16.90;76.50;;;18.13;42.25;99599.41;5016593;28;20058;-82
2022/12/28 02:20:01;;;;;;;4.22;3.03;;;16.90;76.60;;;18.13;42.44;99602.16;5019733;28;20556;-82
2022/12/28 02:23:03;;;;;;;7.80;3.72;;;16.90;76.60;;;18.11;42.59;99596.97;5047648;28;20143;-82
2022/12/28 02:26:03;;;;;;;5.43;3.53;;;16.90;76.60;;;18.10;42.60;99595.34;5064752;28;20044;-82
2022/12/28 02:29:34;;;;;;;7.72;4.30;;;16.80;76.70;;;18.05;42.57;99598.19;5051299;28;20043;-81
2022/12/28 02:32:37;;;;;;;5.55;3.75;;;16.80;76.60;;;18.08;42.66;99591.28;4978381;28;20118;-82
2022/12/28 02:35:31;;;;;;;6.35;3.13;;;16.80;76.70;;;18.11;42.46;99590.66;5018360;28;20049;-82
2022/12/28 02:38:35;;;;;;;8.23;4.22;;;16.70;76.70;;;18.07;42.82;99595.16;5040419;28;20045;-82
2022/12/28 02:41:23;;;;;;;6.40;3.28;;;16.80;77.10;;;17.99;43.10;99591.97;5012487;28;20052;-82
2022/12/28 02:43:49;;;;;;;7.53;4.25;;;16.80;77.00;;;18.05;42.77;99591.88;5034557;28;20131;-81
2022/12/28 02:52:34;;;;;;;6.32;3.85;;;16.70;77.00;;;18.00;42.59;99574.38;5037051;28;20483;-81
2022/12/28 02:58:27;;;;;;;6.22;3.10;;;16.70;77.30;;;17.98;42.75;99560.16;5050979;28;20108;-82
2022/12/28 03:01:21;;;;;;;6.30;3.25;;;16.70;77.10;;;18.01;42.78;99553.22;5061450;28;20052;-81
2022/12/28 03:04:24;;;;;;;6.05;3.47;;;16.70;77.00;;;18.00;42.64;99549.69;5047883;28;20040;-81
2022/12/28 03:10:16;;;;;;;5.20;3.30;;;16.70;76.80;;;17.92;42.69;99542.16;5044400;28;20303;-81
2022/12/28 03:13:43;;;;;;;7.03;4.18;;;16.60;76.90;;;17.92;42.64;99536.66;5027515;28;20082;-81
2022/12/28 03:33:05;;;;;;;8.20;3.90;;;16.50;77.10;;;17.89;42.61;99529.06;5037874;28;20396;-82
2022/12/28 03:35:51;;;;;;;5.07;3.00;;;16.60;77.10;;;17.87;42.63;99534.03;5033070;28;20048;-82
2022/12/28 03:38:27;;;;;;;6.85;3.97;;;16.50;77.20;;;17.93;42.66;99529.25;5031015;28;20468;-82
2022/12/28 03:41:12;;;;;;;5.95;3.75;;;16.60;77.20;;;17.92;42.71;99535.88;5035490;28;20696;-82
2022/12/28 03:43:49;;;;;;;6.05;3.58;;;16.50;77.20;;;17.87;42.80;99542.25;5031586;28;20045;-82
2022/12/28 03:46:48;;;;;;;4.13;3.33;;;16.50;77.20;;;17.87;42.59;99545.00;5015282;28;20046;-82
2022/12/28 03:49:14;;;;;;;6.18;3.47;;;16.40;77.10;;;17.89;42.78;99541.97;5022107;28;20412;-82
2022/12/28 03:51:40;;;;;;;5.07;3.72;;;16.50;77.20;;;17.83;42.81;99537.69;5029063;28;20041;-82
2022/12/28 03:54:06;;;;;;;5.57;4.05;;;16.40;77.20;;;17.84;42.66;99531.91;5031271;28;20041;-82
2022/12/28 03:56:32;;;;;;;5.95;3.65;;;16.40;77.30;;;17.86;42.69;99534.31;5013574;28;20071;-82
2022/12/28 03:58:59;;;;;;;5.55;3.15;;;16.40;77.30;;;17.83;42.78;99530.25;5043839;28;20041;-82
2022/12/28 04:01:24;;;;;;;6.63;4.00;;;16.50;77.20;;;17.83;43.00;99530.25;5019351;28;20458;-82
2022/12/28 04:03:51;;;;;;;6.53;3.90;;;16.50;77.20;;;17.84;42.73;99526.41;5031069;28;20037;-82
2022/12/28 04:06:18;;;;;;;6.72;4.10;;;16.50;77.30;;;17.82;43.06;99516.84;5034310;28;20041;-82
2022/12/28 04:08:44;;;;;;;7.35;3.92;;;16.50;77.50;;;17.78;42.88;99516.59;5031126;28;20114;-82
2022/12/28 04:11:11;;;;;;;7.40;3.50;;;16.50;77.20;;;17.81;42.97;99510.56;5038079;28;20044;-82
2022/12/28 04:13:37;;;;;;;5.90;3.28;;;16.40;77.40;;;17.75;43.06;99518.03;5000014;28;20761;-82
2022/12/28 04:16:07;;;;;;;5.50;3.75;;;16.40;77.50;;;17.77;43.08;99523.22;5046895;28;20068;-82
2022/12/28 04:18:33;;;;;;;5.75;3.25;;;16.30;77.50;;;17.77;42.81;99514.97;5037116;28;20051;-82
2022/12/28 04:20:59;;;;;;;4.65;3.17;;;16.40;77.40;;;17.84;42.82;99514.63;5017718;28;20060;-82
2022/12/28 04:23:26;;;;;;;5.22;3.47;;;16.40;77.40;;;17.77;42.79;99518.53;5034220;28;20207;-81
2022/12/28 04:26:12;;;;;;;4.65;3.67;;;16.40;77.30;;;17.74;42.80;99515.59;5038208;28;20041;-82
2022/12/28 04:28:38;;;;;;;7.70;3.90;;;16.30;77.40;;;17.71;42.96;99519.75;5006557;28;20082;-82
2022/12/28 04:31:05;;;;;;;6.80;3.90;;;16.30;77.60;;;17.76;42.89;99507.88;5033548;28;20119;-82
2022/12/28 04:33:32;;;;;;;5.03;3.10;;;16.30;77.50;;;17.76;42.73;99502.38;5022677;28;20028;-82
2022/12/28 04:36:10;;;;;;;4.45;3.58;;;16.20;77.50;;;17.70;42.83;99500.84;5037251;28;20460;-81
2022/12/28 04:38:37;;;;;;;9.15;3.85;;;16.20;77.50;;;17.78;42.70;99505.63;5048760;28;20487;-82
2022/12/28 04:41:03;;;;;;;5.47;3.40;;;16.20;77.50;;;17.71;42.88;99494.25;5020856;28;20166;-81
2022/12/28 04:43:29;;;;;;;5.80;3.15;;;16.20;77.50;;;17.75;42.76;99506.22;5014761;28;20043;-82
2022/12/28 04:46:00;;;;;;;5.22;3.85;;;16.20;77.50;;;17.73;42.76;99498.31;5050099;28;20475;-82
2022/12/28 04:48:27;;;;;;;4.78;3.50;;;16.20;77.50;;;17.75;42.86;99487.03;5030779;28;20063;-81
2022/12/28 04:50:53;;;;;;;4.35;3.08;;;16.20;77.60;;;17.68;42.55;99483.88;5000531;28;20478;-81
2022/12/28 04:53:20;;;;;;;7.53;3.70;;;16.20;77.60;;;17.67;42.75;99482.25;5031828;28;20033;-81
2022/12/28 04:55:46;;;;;;;6.85;3.35;;;16.20;77.60;;;17.72;42.78;99484.91;5034662;28;20045;-82
2022/12/28 04:58:12;;;;;;;5.85;3.92;;;16.20;77.40;;;17.72;42.63;99484.91;5016463;28;20059;-82
2022/12/28 05:00:38;;;;;;;5.25;3.17;;;16.30;77.30;;;17.69;42.50;99480.84;5018804;28;20045;-82
2022/12/28 05:03:04;;;;;;;6.25;3.33;;;16.20;77.40;;;17.66;42.90;99492.41;5037819;28;20346;-82
2022/12/28 05:05:30;;;;;;;7.13;4.00;;;16.20;77.40;;;17.61;43.20;99492.53;5037472;28;20041;-82
2022/12/28 05:07:59;;;;;;;3.83;3.10;;;16.10;77.40;;;17.66;42.74;99483.38;5048977;28;20037;-82
2022/12/28 05:10:26;;;;;;;6.40;3.47;;;16.20;77.60;;;17.68;42.72;99478.38;5030376;28;20454;-82
2022/12/28 05:12:55;;;;;;;6.05;3.38;;;16.20;77.40;;;17.61;42.84;99472.50;5016991;28;20049;-82
2022/12/28 05:15:21;;;;;;;6.40;3.67;;;16.10;77.50;;;17.62;42.74;99479.59;5015830;28;20658;-82
2022/12/28 05:17:47;;;;;;;5.72;3.53;;;16.10;77.50;;;17.61;42.59;99478.81;5034446;28;20045;-81
2022/12/28 05:20:14;;;;;;;6.15;3.50;;;16.20;77.50;;;17.65;42.72;99484.47;5016588;28;20063;-82
2022/12/28 05:22:41;;;;;;;6.05;3.15;;;16.20;77.40;;;17.66;42.52;99483.38;4989825;28;20072;-82
2022/12/28 05:25:07;;;;;;;5.15;3.60;;;16.10;77.40;;;17.61;42.66;99481.53;5032206;28;20055;-82
2022/12/28 05:27:33;;;;;;;6.00;3.78;;;16.00;77.50;;;17.60;42.73;99479.09;5049437;28;20059;-82
2022/12/28 05:29:59;;;;;;;5.22;3.60;;;16.00;77.60;;;17.56;42.95;99468.75;5004377;28;20049;-82
2022/12/28 05:32:25;;;;;;;5.35;4.07;;;16.10;77.60;;;17.54;42.88;99476.44;5034318;28;20342;-81
2022/12/28 05:34:51;;;;;;;6.75;3.53;;;16.00;77.60;;;17.58;42.88;99472.00;5029334;28;20090;-81
2022/12/28 05:37:18;;;;;;;5.28;3.97;;;16.00;77.50;;;17.57;42.89;99472.28;5031741;28;20040;-81
2022/12/28 05:39:44;;;;;;;5.07;3.28;;;16.00;77.50;;;17.52;42.94;99473.19;5049559;28;20048;-82
2022/12/28 05:42:10;;;;;;;5.25;2.72;;;16.00;77.60;;;17.53;43.00;99468.53;5015324;28;20043;-82
2022/12/28 05:44:36;;;;;;;5.95;3.65;;;16.00;77.50;;;17.55;42.73;99469.88;5016932;28;20044;-82
2022/12/28 05:47:02;;;;;;;4.90;3.60;;;16.10;77.50;;;17.54;42.86;99465.47;5016235;28;20048;-82
2022/12/28 05:49:28;;;;;;;4.78;3.28;;;16.00;77.50;;;17.52;42.86;99464.97;5034164;28;20372;-82
2022/12/28 05:51:54;;;;;;;5.60;3.42;;;16.00;77.70;;;17.55;42.66;99460.78;5047859;28;20051;-81
2022/12/28 05:54:20;;;;;;;5.10;3.55;;;16.10;77.40;;;17.54;42.73;99453.69;5044688;28;20037;-82
2022/12/28 05:56:50;;;;;;;6.18;3.70;;;16.00;77.20;;;17.54;42.94;99456.44;5032489;28;20037;-81
2022/12/28 05:59:16;;;;;;;5.85;3.88;;;16.10;77.50;;;17.56;42.76;99455.03;5019510;28;20091;-81
2022/12/28 06:01:42;;;;;;;3.63;3.10;;;16.00;77.40;;;17.49;42.56;99453.78;5031473;28;20649;-81
2022/12/28 06:04:15;;;;;;;5.68;4.38;;;16.00;77.40;;;17.51;42.89;99448.81;5029388;28;20041;-81
2022/12/28 06:06:41;;;;;;;5.57;3.78;;;16.00;77.70;;;17.47;43.12;99448.59;5036034;28;20120;-81
2022/12/28 06:09:07;;;;;;;6.15;3.78;;;16.00;77.60;;;17.50;42.86;99448.03;5037830;28;20119;-81
2022/12/28 06:11:35;;;;;;;5.40;3.65;;;16.00;77.50;;;17.52;42.91;99443.03;5030440;28;20040;-80
2022/12/28 06:14:04;;;;;;;8.55;4.40;;;16.00;77.30;;;17.48;42.88;99443.94;5034749;28;20058;-81
2022/12/28 06:16:36;;;;;;;3.17;2.83;;;16.00;77.50;;;17.48;42.75;99435.72;5047092;28;20125;-81
2022/12/28 06:19:04;;;;;;;;;;;15.90;77.50;;;17.49;42.70;99449.13;5047586;28;20062;-80
2022/12/28 06:21:31;;;;;;;5.03;3.72;;;15.90;77.70;;;17.50;42.89;99441.69;5044337;28;19930;-81
2022/12/28 06:23:58;;;;;;;5.75;3.22;;;15.90;77.40;;;17.41;42.87;99436.13;5007812;28;20044;-81
2022/12/28 06:26:26;;;;;;;5.13;3.10;;;15.80;77.70;;;17.46;42.95;99437.94;5029743;28;20036;-81
2022/12/28 06:28:52;;;;;;;4.25;3.25;;;15.90;77.60;;;17.45;42.71;99439.84;5031859;28;20384;-81
2022/12/28 06:31:20;;;;;;;4.05;2.90;;;15.90;77.40;;;17.44;42.85;99435.50;5019705;28;20526;-81
2022/12/28 06:33:47;;;;;;;5.10;3.80;;;15.90;77.70;;;17.48;42.73;99438.47;5027744;28;20065;-81
2022/12/28 06:36:19;;;;;;;4.40;3.17;;;15.90;77.70;;;17.48;42.82;99430.25;5030540;28;20043;-81
2022/12/28 06:38:46;;;;;;;5.20;3.78;;;15.90;77.60;;;17.43;43.01;99420.19;5045613;28;20051;-81
2022/12/28 06:41:13;;;;;;;7.28;3.85;;;15.90;77.60;;;17.39;42.90;99421.06;5024953;28;20045;-81
2022/12/28 06:43:39;;;;;;;4.50;3.25;;;15.80;77.70;;;17.41;42.98;99425.16;5018450;28;20045;-81
2022/12/28 06:46:06;;;;;;;6.10;3.40;;;15.80;77.80;;;17.39;43.08;99429.31;5030926;28;20041;-81
2022/12/28 06:48:32;;;;;;;4.43;3.40;;;15.80;77.70;;;17.37;42.94;99432.34;5031558;28;20070;-81
2022/12/28 06:51:04;;;;;;;6.97;3.72;;;15.80;77.90;;;17.36;42.80;99427.97;5044943;28;20499;-81
2022/12/28 06:53:35;;;;;;;6.30;3.50;;;15.70;77.80;;;17.34;42.89;99421.97;5046736;28;20519;-81
2022/12/28 06:56:04;;;;;;;5.53;3.58;;;15.80;77.80;;;17.43;43.07;99422.06;5015083;28;20132;-81
2022/12/28 06:58:31;;;;;;;6.78;3.97;;;15.80;77.90;;;17.41;42.93;99421.59;5021888;28;20044;-81
2022/12/28 07:01:04;;;;;;;7.05;4.07;;;15.80;77.90;;;17.42;42.71;99424.00;5016979;28;20575;-81
2022/12/28 07:03:30;;;;;;;6.15;3.75;;;15.80;77.80;;;17.39;42.92;99410.13;5031744;28;20045;-81
2022/12/28 07:06:00;;;;;;;7.53;3.28;;;15.80;77.70;;;17.39;42.78;99410.91;5043349;28;20094;-81
2022/12/28 07:08:26;;;;;;;5.05;3.72;;;15.80;77.80;;;17.39;42.73;99410.13;5031797;28;20047;-81
2022/12/28 07:10:53;;;;;;;4.30;3.42;;;15.70;77.90;;;17.34;43.02;99397.31;5016585;28;20082;-81
2022/12/28 07:13:18;;;;;;;6.85;3.15;;;15.80;77.80;;;17.34;42.75;99398.13;5034492;28;20036;-82
2022/12/28 07:15:45;;;;;;;5.30;3.70;;;15.70;77.80;;;17.36;42.88;99400.56;5035611;28;20061;-82
2022/12/28 07:18:11;;;;;;;4.32;2.90;;;15.70;78.70;;;17.33;42.79;99401.97;5046868;28;20036;-82
2022/12/28 07:20:37;;;;;;;6.13;3.38;;;15.70;78.00;;;17.35;42.55;99398.91;5017718;28;20057;-81
2022/12/28 07:23:03;;;;;;;4.75;2.95;;;15.70;77.90;;;17.35;42.61;99393.44;5020398;28;20046;-82
2022/12/28 07:25:29;;;;;;;4.88;3.83;;;15.70;77.80;;;17.36;42.66;99401.38;5033366;28;20451;-82
2022/12/28 07:27:55;;;;;;;7.72;3.97;;;15.70;77.80;;;17.32;42.93;99399.53;5029929;28;20129;-82
2022/12/28 07:30:21;;;;;;;3.67;3.35;;;15.70;77.90;;;17.34;42.67;99394.56;5029405;28;20037;-82
2022/12/28 07:32:47;;;;;;;6.82;3.67;;;15.70;77.90;;;17.36;42.95;99384.91;5006726;28;20613;-82
2022/12/28 07:35:13;;;;;;;3.45;2.97;;;15.60;77.80;;;17.33;42.72;99392.94;5028291;28;20057;-81
2022/12/28 07:37:39;;;;;;;6.25;3.50;;;15.60;78.00;;;17.31;42.82;99387.75;5034371;28;20437;-82
2022/12/28 07:40:07;;;;;;;6.47;4.03;;;15.50;78.00;;;17.37;42.53;99396.69;5033184;28;20047;-82
2022/12/28 07:42:32;;;;;;;4.40;3.40;;;15.60;77.90;;;17.37;42.56;99385.72;5033049;28;20045;-81
2022/12/28 07:45:01;;;;;;;4.65;3.58;;;15.60;77.80;;;17.41;42.74;99386.75;5051938;28;20036;-82
2022/12/28 07:47:27;;;;;;;5.78;3.00;;;15.60;78.00;;;17.39;42.88;99377.19;5018284;28;20467;-81
2022/12/28 07:49:54;;;;;;;5.85;3.53;;;15.70;78.10;;;17.32;42.99;99378.41;5034035;28;20132;-82
2022/12/28 07:52:19;;;;;;;6.05;3.40;;;15.70;77.90;;;17.35;42.90;99377.81;5012300;28;20041;-81
2022/12/28 07:54:46;;;;;;;7.22;3.60;;;15.60;77.90;;;17.34;42.73;99376.19;5069629;28;20037;-81
2022/12/28 07:57:12;;;;;;;5.40;3.28;;;15.50;78.20;;;17.36;42.87;99371.19;5036510;28;20036;-82
2022/12/28 07:59:38;;;;;;;5.53;3.30;;;15.50;78.10;;;17.41;42.65;99374.97;5034102;28;20048;-81
2022/12/28 08:02:04;;;;;;;4.07;2.65;;;15.60;78.10;;;17.40;42.81;99374.13;5046817;28;20047;-81
2022/12/28 08:04:30;;;;;;;5.63;3.63;;;15.50;78.30;;;17.40;42.82;99376.06;5048782;28;20060;-81
2022/12/28 08:06:59;;;;;;;6.45;3.75;;;15.60;78.30;;;17.39;43.09;99372.53;5033917;28;20044;-82
2022/12/28 08:09:25;;;;;;;4.50;3.35;;;15.60;78.00;;;17.38;42.93;99365.44;5051385;28;20044;-81
2022/12/28 08:11:51;;;;;;;6.95;4.07;;;15.60;78.30;;;17.36;42.96;99373.13;5033875;28;20510;-81
2022/12/28 08:14:18;;;;;;;5.03;3.53;;;15.60;78.30;;;17.36;42.77;99373.94;5038490;28;20045;-81
2022/12/28 08:16:44;;;;;;;6.78;3.47;;;15.50;78.10;;;17.38;42.49;99368.16;5051819;28;20036;-81
2022/12/28 08:19:11;;;;;;;3.92;3.13;;;15.50;78.10;;;17.32;42.75;99356.47;5023058;28;20098;-81
2022/12/28 08:21:39;;;;;;;5.68;3.55;;;15.50;78.10;;;17.34;42.83;99359.72;5032749;28;20052;-82
2022/12/28 08:24:06;;;;;;;6.00;4.28;;;15.60;78.10;;;17.36;42.70;99365.72;5031493;28;20041;-81
2022/12/28 08:26:53;;;;;;;7.30;3.30;;;15.60;77.80;;;17.36;42.88;99364.91;5022294;28;20052;-82
2022/12/28 08:29:20;;;;;;;4.60;3.60;;;15.60;77.80;;;17.36;42.58;99362.97;4991510;28;20050;-82
2022/12/28 08:31:46;;;;;;;5.40;3.78;;;15.60;77.80;;;17.41;42.80;99361.25;4987722;28;20057;-82
2022/12/28 08:34:18;;;;;;;5.13;4.00;;;15.60;77.80;;;17.38;42.67;99357.19;4959167;28;20136;-82
2022/12/28 08:36:44;;;;;;;5.90;4.13;;;15.60;77.80;;;17.46;42.61;99356.47;4959468;28;20517;-82
2022/12/28 08:39:11;;;;;;;5.28;3.40;;;15.70;77.80;;;17.44;42.29;99355.97;4992034;28;20057;-82
2022/12/28 08:41:37;;;;;;;4.85;3.58;;;15.70;77.50;;;17.46;42.28;99361.16;4979210;28;20049;-82
2022/12/28 08:44:03;;;;;;;5.25;4.15;;;15.70;77.60;;;17.48;42.36;99358.94;4989024;28;20056;-82
2022/12/28 08:46:31;;;;;;;5.40;3.97;;;15.70;77.60;;;17.47;42.46;99366.31;4954247;28;20413;-82
2022/12/28 08:48:58;;;;;;;6.18;3.70;;;15.70;77.80;;;17.51;42.34;99366.53;4991994;28;20046;-82
2022/12/28 08:51:40;;;;;;;5.63;4.18;;;15.70;77.60;;;17.51;42.16;99361.88;4975184;28;20137;-81
2022/12/28 08:54:07;;;;;;;8.18;4.60;;;15.70;77.50;;;17.57;42.28;99360.63;4977329;28;20064;-82
2022/12/28 08:56:36;;;;;;;10.27;4.72;;;15.70;77.50;;;17.58;42.01;99359.53;4976178;28;20525;-82
2022/12/28 08:59:03;;;;;;;7.20;4.63;;;15.70;77.40;;;17.60;42.13;99361.13;4971834;28;20056;-82
2022/12/28 09:01:34;;;;;;;5.57;3.45;;;15.70;77.50;;;17.63;41.90;99364.09;5001270;28;20696;-82
2022/12/28 09:04:01;;;;;;;7.07;4.68;;;15.70;77.40;;;17.71;41.96;99355.13;5039080;28;20048;-81
2022/12/28 09:06:35;;;;;;;7.88;4.45;;;15.80;77.30;;;17.76;41.97;99363.25;5017887;28;20036;-82
2022/12/28 09:09:07;;;;;;;5.18;3.97;;;15.90;77.20;;;17.80;41.84;99363.47;5037386;28;20070;-82
2022/12/28 09:11:34;;;;;;;6.65;4.57;;;16.00;77.00;;;17.82;41.86;99352.19;5030817;28;20053;-82
2022/12/28 09:14:02;;;;;;;5.43;4.22;;;16.00;76.90;;;17.82;41.74;99355.75;5031146;28;20044;-81
2022/12/28 09:16:28;;;;;;;5.32;3.65;;;15.90;77.10;;;17.86;41.74;99356.78;5047125;28;20051;-81
2022/12/28 09:19:00;;;;;;;5.93;4.22;;;16.00;77.30;;;17.90;41.47;99357.75;5017942;28;20124;-82
2022/12/28 09:21:28;;;;;;;5.95;4.00;;;16.00;77.00;;;17.88;41.93;99357.25;5032626;28;20419;-81
2022/12/28 09:23:55;;;;;;;8.18;4.55;;;16.00;77.20;;;17.90;41.79;99355.03;5015913;28;20285;-81
2022/12/28 09:26:26;;;;;;;7.55;4.63;;;15.90;77.10;;;17.92;41.64;99349.22;5036190;28;20527;-81
2022/12/28 09:28:57;;;;;;;4.60;3.72;;;16.00;77.20;;;17.95;41.37;99354.09;5009934;28;20097;-82
2022/12/28 09:31:26;;;;;;;9.68;4.78;;;16.00;77.30;;;18.02;41.47;99342.72;5015201;28;20040;-81
2022/12/28 09:34:02;;;;;;;4.70;4.28;;;15.90;77.30;;;17.99;41.76;99342.19;5020877;28;20116;-81
2022/12/28 09:36:35;;;;;;;6.55;4.45;;;15.90;77.70;;;18.07;41.51;99337.91;5037686;28;20086;-81
2022/12/28 09:39:07;;;;;;;5.85;4.78;;;16.00;77.70;;;18.05;41.38;99344.81;5036175;28;20477;-82
2022/12/28 09:42:13;;;;;;;6.57;4.55;;;16.00;77.60;;;18.06;41.40;99341.75;5008750;28;20493;-82
2022/12/28 09:44:54;;;;;;;6.13;3.97;;;16.00;77.50;;;18.04;41.35;99337.69;5052973;28;20526;-82
2022/12/28 09:47:32;;;;;;;10.25;5.60;;;16.00;77.30;;;18.15;41.34;99328.91;5050332;28;20044;-82
2022/12/28 09:50:20;;;;;;;7.47;4.38;;;16.00;77.40;;;18.17;41.56;99331.38;5060455;28;20127;-82
2022/12/28 09:53:04;;;;;;;6.57;4.97;;;16.00;77.60;;;18.20;41.72;99325.25;5062549;28;20074;-81
2022/12/28 09:55:36;;;;;;;6.75;4.57;;;16.20;77.90;;;18.20;41.39;99320.56;5050381;28;20064;-81
2022/12/28 09:58:04;;;;;;;7.22;5.53;;;16.20;77.30;;;18.21;41.37;99319.41;5036493;28;20131;-82
2022/12/28 10:00:41;;;;;;;12.02;5.38;;;16.20;77.00;;;18.23;41.33;99319.13;5030647;28;20668;-82
2022/12/28 10:03:17;;;;;;;8.00;5.10;;;16.30;77.10;;;18.27;41.51;99309.16;5021427;28;20044;-82
2022/12/28 10:05:43;;;;;;;8.65;5.18;;;16.30;77.10;;;18.33;41.50;99315.31;5048436;28;20450;-83
2022/12/28 10:08:12;;;;;;;9.65;6.30;;;16.30;77.30;;;18.34;41.53;99312.28;5031598;28;20116;-83
2022/12/28 10:10:39;;;;;;;7.93;5.72;;;16.40;77.40;;;18.35;41.51;99310.34;5019788;28;20674;-82
2022/12/28 10:13:24;;;;;;;12.05;5.35;;;16.40;77.10;;;18.34;41.34;99312.28;5005770;28;20033;-82
2022/12/28 10:15:51;;;;;;;8.27;5.97;;;16.40;77.10;;;18.42;41.35;99307.97;5021690;28;20092;-82
2022/12/28 10:18:26;;;;;;;7.80;5.95;;;16.40;77.30;;;18.46;41.46;99305.41;5012654;28;20047;-82
2022/12/28 10:20:56;;;;;;;8.18;6.03;;;16.50;77.20;;;18.42;41.44;99299.72;5031262;28;20048;-82
2022/12/28 10:23:27;;;;;;;11.25;6.53;;;16.50;77.20;;;18.41;41.40;99298.88;5030727;28;20553;-82
2022/12/28 10:25:54;;;;;;;8.07;5.70;;;16.60;76.90;;;18.51;41.31;99291.53;5032983;28;20103;-82
2022/12/28 10:28:22;;;;;;;9.80;6.57;;;16.50;77.00;;;18.50;41.24;99289.91;5017961;28;20052;-82
2022/12/28 10:31:10;;;;;;;8.07;6.25;;;16.50;77.10;;;18.50;41.23;99293.47;5029268;28;20043;-82
2022/12/28 10:33:41;;;;;;;8.15;6.15;;;16.50;76.90;;;18.52;41.22;99291.22;5043598;28;20048;-83
2022/12/28 10:36:23;;;;;;;8.98;6.35;;;16.60;77.00;;;18.55;41.21;99285.09;5016714;28;20047;-83
2022/12/28 10:38:52;;;;;;;7.65;5.57;;;16.60;77.00;;;18.58;40.97;99281.72;5032213;28;20107;-82
2022/12/28 10:41:18;;;;;;;11.02;6.57;;;16.60;76.90;;;18.59;41.10;99285.25;5013223;28;20055;-82
2022/12/28 10:43:51;;;;;;;11.48;7.20;;;16.60;76.80;;;18.61;40.97;99281.06;5030172;28;20051;-82
2022/12/28 10:46:21;;;;;;;14.43;6.32;;;16.70;76.70;;;18.62;41.17;99277.22;5029124;28;20053;-81
2022/12/28 10:48:55;;;;;;;9.20;6.85;;;16.70;76.80;;;18.65;41.13;99262.84;5019012;28;20047;-82
2022/12/28 10:51:26;;;;;;;10.15;7.15;;;16.70;77.00;;;18.68;41.22;99261.41;5043470;28;20041;-82
2022/12/28 10:53:54;;;;;;;9.50;7.05;;;16.70;77.00;;;18.69;41.29;99251.22;5031405;28;20041;-82
2022/12/28 10:56:31;;;;;;;11.15;7.57;;;16.80;76.90;;;18.68;41.14;99253.16;5026112;28;20086;-82
2022/12/28 10:59:09;;;;;;;8.27;6.55;;;16.70;76.80;;;18.62;41.12;99244.25;5028285;28;20379;-82
2022/12/28 11:01:35;;;;;;;11.40;7.03;;;16.80;76.70;;;18.69;41.21;99237.47;5045337;28;20053;-82
2022/12/28 11:04:20;;;;;;;8.30;7.28;;;16.80;76.90;;;18.68;41.32;99228.44;5045635;28;20097;-82